sensor_id;sensor_type;location;lat;lon;timestamp;P1;durP1;ratioP1;P2;durP2;ratioP2
32427;SDS011;18882;50.952;4.366;2023-11-21T00:01:16;40.53;;;15.57;;
32427;SDS011;18882;50.952;4.366;2023-11-21T00:03:42;51.28;;;15.38;;
32427;SDS011;18882;50.952;4.366;2023-11-21T00:06:08;51.85;;;14.85;;
32427;SDS011;18882;50.952;4.366;2023-11-21T00:08:34;54.70;;;15.63;;
32427;SDS011;18882;50.952;4.366;2023-11-21T00:11:01;43.42;;;15.70;;
32427;SDS011;18882;50.952;4.366;2023-11-21T00:13:30;52.30;;;15.23;;
32427;SDS011;18882;50.952;4.366;2023-11-21T00:15:56;43.47;;;14.57;;
32427;SDS011;18882;50.952;4.366;2023-11-21T00:18:22;42.28;;;14.85;;
32427;SDS011;18882;50.952;4.366;2023-11-21T00:20:47;47.00;;;15.18;;
32427;SDS011;18882;50.952;4.366;2023-11-21T00:23:13;44.40;;;15.43;;
32427;SDS011;18882;50.952;4.366;2023-11-21T00:25:39;49.38;;;15.60;;
32427;SDS011;18882;50.952;4.366;2023-11-21T00:28:05;50.35;;;15.00;;
32427;SDS011;18882;50.952;4.366;2023-11-21T00:30:31;52.50;;;15.98;;
32427;SDS011;18882;50.952;4.366;2023-11-21T00:32:57;51.47;;;16.15;;
32427;SDS011;18882;50.952;4.366;2023-11-21T00:35:23;43.58;;;14.23;;
32427;SDS011;18882;50.952;4.366;2023-11-21T00:37:49;50.80;;;15.57;;
32427;SDS011;18882;50.952;4.366;2023-11-21T00:40:14;44.10;;;13.65;;
32427;SDS011;18882;50.952;4.366;2023-11-21T00:42:41;48.95;;;14.25;;
32427;SDS011;18882;50.952;4.366;2023-11-21T00:45:07;43.92;;;12.95;;
32427;SDS011;18882;50.952;4.366;2023-11-21T00:47:33;47.92;;;14.80;;
32427;SDS011;18882;50.952;4.366;2023-11-21T00:49:58;48.63;;;14.73;;
32427;SDS011;18882;50.952;4.366;2023-11-21T00:52:24;45.42;;;14.63;;
32427;SDS011;18882;50.952;4.366;2023-11-21T00:54:50;45.63;;;14.80;;
32427;SDS011;18882;50.952;4.366;2023-11-21T00:57:15;56.70;;;14.57;;
32427;SDS011;18882;50.952;4.366;2023-11-21T00:59:41;57.67;;;17.02;;
32427;SDS011;18882;50.952;4.366;2023-11-21T01:02:07;52.55;;;15.10;;
32427;SDS011;18882;50.952;4.366;2023-11-21T01:04:35;56.72;;;15.40;;
32427;SDS011;18882;50.952;4.366;2023-11-21T01:07:01;58.10;;;15.35;;
32427;SDS011;18882;50.952;4.366;2023-11-21T01:09:26;53.95;;;14.55;;
32427;SDS011;18882;50.952;4.366;2023-11-21T01:11:53;52.72;;;16.13;;
32427;SDS011;18882;50.952;4.366;2023-11-21T01:14:19;52.55;;;15.88;;
32427;SDS011;18882;50.952;4.366;2023-11-21T01:16:44;54.53;;;15.43;;
32427;SDS011;18882;50.952;4.366;2023-11-21T01:19:10;60.95;;;16.92;;
32427;SDS011;18882;50.952;4.366;2023-11-21T01:21:36;59.35;;;16.90;;
32427;SDS011;18882;50.952;4.366;2023-11-21T01:24:02;52.17;;;16.73;;
32427;SDS011;18882;50.952;4.366;2023-11-21T01:26:28;52.70;;;17.83;;
32427;SDS011;18882;50.952;4.366;2023-11-21T01:28:54;66.35;;;17.08;;
32427;SDS011;18882;50.952;4.366;2023-11-21T01:31:19;56.22;;;16.15;;
32427;SDS011;18882;50.952;4.366;2023-11-21T01:33:45;54.97;;;15.88;;
32427;SDS011;18882;50.952;4.366;2023-11-21T01:36:11;61.42;;;17.33;;
32427;SDS011;18882;50.952;4.366;2023-11-21T01:38:37;55.65;;;15.52;;
32427;SDS011;18882;50.952;4.366;2023-11-21T01:41:03;51.30;;;15.10;;
32427;SDS011;18882;50.952;4.366;2023-11-21T01:43:29;56.30;;;16.48;;
32427;SDS011;18882;50.952;4.366;2023-11-21T01:45:57;52.15;;;15.98;;
32427;SDS011;18882;50.952;4.366;2023-11-21T01:48:23;56.67;;;17.08;;
32427;SDS011;18882;50.952;4.366;2023-11-21T01:50:49;52.47;;;15.82;;
32427;SDS011;18882;50.952;4.366;2023-11-21T01:53:16;53.55;;;16.27;;
32427;SDS011;18882;50.952;4.366;2023-11-21T01:55:41;53.10;;;16.50;;
32427;SDS011;18882;50.952;4.366;2023-11-21T01:58:08;51.90;;;16.77;;
32427;SDS011;18882;50.952;4.366;2023-11-21T02:00:35;55.15;;;15.75;;
32427;SDS011;18882;50.952;4.366;2023-11-21T02:03:00;53.33;;;16.92;;
32427;SDS011;18882;50.952;4.366;2023-11-21T02:05:27;47.90;;;16.27;;
32427;SDS011;18882;50.952;4.366;2023-11-21T02:07:54;49.83;;;14.65;;
32427;SDS011;18882;50.952;4.366;2023-11-21T02:10:21;47.97;;;15.82;;
32427;SDS011;18882;50.952;4.366;2023-11-21T02:12:50;52.17;;;16.13;;
32427;SDS011;18882;50.952;4.366;2023-11-21T02:15:16;52.22;;;17.27;;
32427;SDS011;18882;50.952;4.366;2023-11-21T02:17:46;54.15;;;16.65;;
32427;SDS011;18882;50.952;4.366;2023-11-21T02:20:15;49.72;;;16.17;;
32427;SDS011;18882;50.952;4.366;2023-11-21T02:22:43;50.58;;;15.95;;
32427;SDS011;18882;50.952;4.366;2023-11-21T02:25:20;44.58;;;14.57;;
32427;SDS011;18882;50.952;4.366;2023-11-21T02:27:47;48.97;;;14.77;;
32427;SDS011;18882;50.952;4.366;2023-11-21T02:30:14;51.03;;;15.48;;
32427;SDS011;18882;50.952;4.366;2023-11-21T02:32:41;49.88;;;16.20;;
32427;SDS011;18882;50.952;4.366;2023-11-21T02:35:07;52.75;;;14.90;;
32427;SDS011;18882;50.952;4.366;2023-11-21T02:37:34;53.65;;;14.80;;
32427;SDS011;18882;50.952;4.366;2023-11-21T02:40:00;51.13;;;15.18;;
32427;SDS011;18882;50.952;4.366;2023-11-21T02:42:29;51.40;;;16.02;;
32427;SDS011;18882;50.952;4.366;2023-11-21T02:44:55;44.13;;;14.80;;
32427;SDS011;18882;50.952;4.366;2023-11-21T02:47:21;49.75;;;15.48;;
32427;SDS011;18882;50.952;4.366;2023-11-21T02:49:48;50.80;;;15.50;;
32427;SDS011;18882;50.952;4.366;2023-11-21T02:52:14;43.65;;;15.38;;
32427;SDS011;18882;50.952;4.366;2023-11-21T02:54:39;43.90;;;14.73;;
32427;SDS011;18882;50.952;4.366;2023-11-21T02:57:05;46.42;;;15.35;;
32427;SDS011;18882;50.952;4.366;2023-11-21T02:59:31;42.33;;;14.77;;
32427;SDS011;18882;50.952;4.366;2023-11-21T03:01:56;42.97;;;15.35;;
32427;SDS011;18882;50.952;4.366;2023-11-21T03:04:22;43.55;;;14.77;;
32427;SDS011;18882;50.952;4.366;2023-11-21T03:06:47;39.38;;;14.00;;
32427;SDS011;18882;50.952;4.366;2023-11-21T03:09:13;42.58;;;13.60;;
32427;SDS011;18882;50.952;4.366;2023-11-21T03:11:39;43.17;;;14.02;;
32427;SDS011;18882;50.952;4.366;2023-11-21T03:14:04;32.85;;;13.02;;
32427;SDS011;18882;50.952;4.366;2023-11-21T03:16:31;33.58;;;11.50;;
32427;SDS011;18882;50.952;4.366;2023-11-21T03:18:57;33.67;;;13.35;;
32427;SDS011;18882;50.952;4.366;2023-11-21T03:21:23;37.50;;;13.00;;
32427;SDS011;18882;50.952;4.366;2023-11-21T03:23:50;41.17;;;13.48;;
32427;SDS011;18882;50.952;4.366;2023-11-21T03:26:15;35.90;;;13.23;;
32427;SDS011;18882;50.952;4.366;2023-11-21T03:28:41;35.13;;;12.85;;
32427;SDS011;18882;50.952;4.366;2023-11-21T03:31:07;34.10;;;12.45;;
32427;SDS011;18882;50.952;4.366;2023-11-21T03:33:34;39.22;;;12.82;;
32427;SDS011;18882;50.952;4.366;2023-11-21T03:36:00;34.08;;;13.65;;
32427;SDS011;18882;50.952;4.366;2023-11-21T03:38:26;33.38;;;13.18;;
32427;SDS011;18882;50.952;4.366;2023-11-21T03:40:52;39.30;;;13.55;;
32427;SDS011;18882;50.952;4.366;2023-11-21T03:43:18;33.75;;;13.07;;
32427;SDS011;18882;50.952;4.366;2023-11-21T03:45:44;37.53;;;14.23;;
32427;SDS011;18882;50.952;4.366;2023-11-21T03:48:09;36.13;;;12.10;;
32427;SDS011;18882;50.952;4.366;2023-11-21T03:50:38;32.63;;;13.98;;
32427;SDS011;18882;50.952;4.366;2023-11-21T03:53:03;31.35;;;13.10;;
32427;SDS011;18882;50.952;4.366;2023-11-21T03:55:29;46.97;;;13.65;;
32427;SDS011;18882;50.952;4.366;2023-11-21T03:57:56;35.00;;;13.00;;
32427;SDS011;18882;50.952;4.366;2023-11-21T04:00:22;37.47;;;13.15;;
32427;SDS011;18882;50.952;4.366;2023-11-21T04:02:48;39.55;;;14.85;;
32427;SDS011;18882;50.952;4.366;2023-11-21T04:05:16;40.45;;;14.27;;
32427;SDS011;18882;50.952;4.366;2023-11-21T04:07:42;39.20;;;14.38;;
32427;SDS011;18882;50.952;4.366;2023-11-21T04:10:08;35.70;;;14.95;;
32427;SDS011;18882;50.952;4.366;2023-11-21T04:12:35;40.65;;;13.90;;
32427;SDS011;18882;50.952;4.366;2023-11-21T04:15:01;34.80;;;14.18;;
32427;SDS011;18882;50.952;4.366;2023-11-21T04:17:27;36.03;;;13.70;;
32427;SDS011;18882;50.952;4.366;2023-11-21T04:19:53;38.10;;;14.20;;
32427;SDS011;18882;50.952;4.366;2023-11-21T04:22:18;39.45;;;14.85;;
32427;SDS011;18882;50.952;4.366;2023-11-21T04:24:44;37.70;;;13.75;;
32427;SDS011;18882;50.952;4.366;2023-11-21T04:27:09;35.80;;;13.63;;
32427;SDS011;18882;50.952;4.366;2023-11-21T04:29:35;42.53;;;15.48;;
32427;SDS011;18882;50.952;4.366;2023-11-21T04:32:01;36.47;;;14.02;;
32427;SDS011;18882;50.952;4.366;2023-11-21T04:34:27;41.08;;;15.50;;
32427;SDS011;18882;50.952;4.366;2023-11-21T04:36:55;34.40;;;15.52;;
32427;SDS011;18882;50.952;4.366;2023-11-21T04:39:22;42.60;;;14.32;;
32427;SDS011;18882;50.952;4.366;2023-11-21T04:41:47;37.95;;;14.57;;
32427;SDS011;18882;50.952;4.366;2023-11-21T04:44:13;40.13;;;14.93;;
32427;SDS011;18882;50.952;4.366;2023-11-21T04:46:41;40.70;;;14.73;;
32427;SDS011;18882;50.952;4.366;2023-11-21T04:49:06;40.10;;;14.98;;
32427;SDS011;18882;50.952;4.366;2023-11-21T04:51:32;42.88;;;16.05;;
32427;SDS011;18882;50.952;4.366;2023-11-21T04:53:58;40.38;;;14.95;;
32427;SDS011;18882;50.952;4.366;2023-11-21T04:56:24;45.17;;;15.18;;
32427;SDS011;18882;50.952;4.366;2023-11-21T04:58:49;39.55;;;14.65;;
32427;SDS011;18882;50.952;4.366;2023-11-21T05:01:15;32.15;;;15.05;;
32427;SDS011;18882;50.952;4.366;2023-11-21T05:03:41;42.90;;;15.20;;
32427;SDS011;18882;50.952;4.366;2023-11-21T05:06:09;35.33;;;13.95;;
32427;SDS011;18882;50.952;4.366;2023-11-21T05:08:35;40.10;;;14.45;;
32427;SDS011;18882;50.952;4.366;2023-11-21T05:11:02;41.63;;;14.38;;
32427;SDS011;18882;50.952;4.366;2023-11-21T05:13:28;43.03;;;15.05;;
32427;SDS011;18882;50.952;4.366;2023-11-21T05:15:56;37.90;;;15.25;;
32427;SDS011;18882;50.952;4.366;2023-11-21T05:18:22;33.90;;;13.75;;
32427;SDS011;18882;50.952;4.366;2023-11-21T05:20:48;38.40;;;14.52;;
32427;SDS011;18882;50.952;4.366;2023-11-21T05:23:14;36.85;;;15.10;;
32427;SDS011;18882;50.952;4.366;2023-11-21T05:25:40;35.78;;;14.98;;
32427;SDS011;18882;50.952;4.366;2023-11-21T05:28:06;36.70;;;13.70;;
32427;SDS011;18882;50.952;4.366;2023-11-21T05:30:32;38.45;;;14.95;;
32427;SDS011;18882;50.952;4.366;2023-11-21T05:32:57;39.65;;;14.18;;
32427;SDS011;18882;50.952;4.366;2023-11-21T05:35:23;39.92;;;15.90;;
32427;SDS011;18882;50.952;4.366;2023-11-21T05:37:49;39.78;;;15.27;;
32427;SDS011;18882;50.952;4.366;2023-11-21T05:40:14;41.55;;;15.57;;
32427;SDS011;18882;50.952;4.366;2023-11-21T05:42:48;32.83;;;14.13;;
32427;SDS011;18882;50.952;4.366;2023-11-21T05:45:14;35.22;;;15.15;;
32427;SDS011;18882;50.952;4.366;2023-11-21T05:47:43;43.10;;;15.15;;
32427;SDS011;18882;50.952;4.366;2023-11-21T05:50:11;42.85;;;15.90;;
32427;SDS011;18882;50.952;4.366;2023-11-21T05:52:39;40.88;;;14.55;;
32427;SDS011;18882;50.952;4.366;2023-11-21T05:55:09;39.70;;;15.10;;
32427;SDS011;18882;50.952;4.366;2023-11-21T05:57:35;34.75;;;14.02;;
32427;SDS011;18882;50.952;4.366;2023-11-21T06:00:06;40.70;;;13.98;;
32427;SDS011;18882;50.952;4.366;2023-11-21T06:02:39;37.90;;;14.48;;
32427;SDS011;18882;50.952;4.366;2023-11-21T06:05:06;36.83;;;15.13;;
32427;SDS011;18882;50.952;4.366;2023-11-21T06:07:32;43.78;;;14.93;;
32427;SDS011;18882;50.952;4.366;2023-11-21T06:09:58;34.40;;;13.93;;
32427;SDS011;18882;50.952;4.366;2023-11-21T06:12:24;37.10;;;13.82;;
32427;SDS011;18882;50.952;4.366;2023-11-21T06:14:50;32.80;;;12.90;;
32427;SDS011;18882;50.952;4.366;2023-11-21T06:17:16;40.13;;;14.10;;
32427;SDS011;18882;50.952;4.366;2023-11-21T06:19:42;37.83;;;13.65;;
32427;SDS011;18882;50.952;4.366;2023-11-21T06:22:10;34.17;;;12.80;;
32427;SDS011;18882;50.952;4.366;2023-11-21T06:24:36;32.70;;;13.85;;
32427;SDS011;18882;50.952;4.366;2023-11-21T06:27:03;34.55;;;13.90;;
32427;SDS011;18882;50.952;4.366;2023-11-21T06:29:30;31.55;;;13.70;;
32427;SDS011;18882;50.952;4.366;2023-11-21T06:31:56;34.83;;;14.00;;
32427;SDS011;18882;50.952;4.366;2023-11-21T06:34:23;41.92;;;14.98;;
32427;SDS011;18882;50.952;4.366;2023-11-21T06:36:49;38.00;;;14.52;;
32427;SDS011;18882;50.952;4.366;2023-11-21T06:39:14;37.47;;;14.25;;
32427;SDS011;18882;50.952;4.366;2023-11-21T06:41:42;32.65;;;14.02;;
32427;SDS011;18882;50.952;4.366;2023-11-21T06:44:08;42.47;;;14.52;;
32427;SDS011;18882;50.952;4.366;2023-11-21T06:46:34;30.38;;;13.00;;
32427;SDS011;18882;50.952;4.366;2023-11-21T06:48:59;31.00;;;13.15;;
32427;SDS011;18882;50.952;4.366;2023-11-21T06:51:25;34.00;;;14.02;;
32427;SDS011;18882;50.952;4.366;2023-11-21T06:53:51;36.33;;;13.50;;
32427;SDS011;18882;50.952;4.366;2023-11-21T06:56:17;30.88;;;12.40;;
32427;SDS011;18882;50.952;4.366;2023-11-21T06:58:46;34.63;;;13.70;;
32427;SDS011;18882;50.952;4.366;2023-11-21T07:01:15;32.05;;;13.60;;
32427;SDS011;18882;50.952;4.366;2023-11-21T07:03:41;37.42;;;12.98;;
32427;SDS011;18882;50.952;4.366;2023-11-21T07:06:07;33.72;;;13.15;;
32427;SDS011;18882;50.952;4.366;2023-11-21T07:08:33;41.60;;;14.35;;
32427;SDS011;18882;50.952;4.366;2023-11-21T07:10:59;35.38;;;14.25;;
32427;SDS011;18882;50.952;4.366;2023-11-21T07:13:24;40.70;;;14.20;;
32427;SDS011;18882;50.952;4.366;2023-11-21T07:15:51;36.38;;;14.45;;
32427;SDS011;18882;50.952;4.366;2023-11-21T07:18:17;37.58;;;14.82;;
32427;SDS011;18882;50.952;4.366;2023-11-21T07:20:43;38.08;;;14.85;;
32427;SDS011;18882;50.952;4.366;2023-11-21T07:23:08;35.30;;;15.82;;
32427;SDS011;18882;50.952;4.366;2023-11-21T07:25:34;44.25;;;16.13;;
32427;SDS011;18882;50.952;4.366;2023-11-21T07:28:00;46.78;;;15.52;;
32427;SDS011;18882;50.952;4.366;2023-11-21T07:30:26;36.08;;;14.57;;
32427;SDS011;18882;50.952;4.366;2023-11-21T07:32:52;35.72;;;14.45;;
32427;SDS011;18882;50.952;4.366;2023-11-21T07:35:18;41.15;;;15.25;;
32427;SDS011;18882;50.952;4.366;2023-11-21T07:37:43;40.00;;;14.88;;
32427;SDS011;18882;50.952;4.366;2023-11-21T07:40:09;47.92;;;15.80;;
32427;SDS011;18882;50.952;4.366;2023-11-21T07:42:36;36.50;;;15.80;;
32427;SDS011;18882;50.952;4.366;2023-11-21T07:45:02;39.25;;;14.95;;
32427;SDS011;18882;50.952;4.366;2023-11-21T07:47:29;38.45;;;14.60;;
32427;SDS011;18882;50.952;4.366;2023-11-21T07:49:55;36.30;;;16.38;;
32427;SDS011;18882;50.952;4.366;2023-11-21T07:52:21;42.70;;;15.05;;
32427;SDS011;18882;50.952;4.366;2023-11-21T07:54:47;37.78;;;15.38;;
32427;SDS011;18882;50.952;4.366;2023-11-21T07:57:13;37.25;;;15.18;;
32427;SDS011;18882;50.952;4.366;2023-11-21T07:59:39;41.53;;;15.00;;
32427;SDS011;18882;50.952;4.366;2023-11-21T08:02:07;45.92;;;16.52;;
32427;SDS011;18882;50.952;4.366;2023-11-21T08:04:33;42.75;;;16.42;;
32427;SDS011;18882;50.952;4.366;2023-11-21T08:07:00;42.97;;;16.33;;
32427;SDS011;18882;50.952;4.366;2023-11-21T08:09:26;42.28;;;15.88;;
32427;SDS011;18882;50.952;4.366;2023-11-21T08:11:52;41.88;;;16.55;;
32427;SDS011;18882;50.952;4.366;2023-11-21T08:14:18;54.15;;;17.73;;
32427;SDS011;18882;50.952;4.366;2023-11-21T08:16:45;52.22;;;15.98;;
32427;SDS011;18882;50.952;4.366;2023-11-21T08:19:23;54.63;;;15.50;;
32427;SDS011;18882;50.952;4.366;2023-11-21T08:21:50;47.42;;;15.93;;
32427;SDS011;18882;50.952;4.366;2023-11-21T08:24:16;46.10;;;16.63;;
32427;SDS011;18882;50.952;4.366;2023-11-21T08:26:41;46.38;;;15.25;;
32427;SDS011;18882;50.952;4.366;2023-11-21T08:29:08;54.30;;;15.77;;
32427;SDS011;18882;50.952;4.366;2023-11-21T08:31:33;45.92;;;15.60;;
32427;SDS011;18882;50.952;4.366;2023-11-21T08:33:59;54.47;;;15.30;;
32427;SDS011;18882;50.952;4.366;2023-11-21T08:36:27;40.88;;;14.68;;
32427;SDS011;18882;50.952;4.366;2023-11-21T08:38:52;62.80;;;15.88;;
32427;SDS011;18882;50.952;4.366;2023-11-21T08:41:18;48.95;;;16.52;;
32427;SDS011;18882;50.952;4.366;2023-11-21T08:43:47;51.55;;;16.02;;
32427;SDS011;18882;50.952;4.366;2023-11-21T08:46:15;52.53;;;15.40;;
32427;SDS011;18882;50.952;4.366;2023-11-21T08:48:42;61.85;;;17.55;;
32427;SDS011;18882;50.952;4.366;2023-11-21T08:51:09;63.92;;;17.27;;
32427;SDS011;18882;50.952;4.366;2023-11-21T08:53:36;49.75;;;16.95;;
32427;SDS011;18882;50.952;4.366;2023-11-21T08:56:02;54.95;;;16.48;;
32427;SDS011;18882;50.952;4.366;2023-11-21T08:58:29;54.08;;;17.02;;
32427;SDS011;18882;50.952;4.366;2023-11-21T09:00:57;60.85;;;17.48;;
32427;SDS011;18882;50.952;4.366;2023-11-21T09:03:23;43.22;;;15.15;;
32427;SDS011;18882;50.952;4.366;2023-11-21T09:05:48;53.47;;;16.95;;
32427;SDS011;18882;50.952;4.366;2023-11-21T09:08:14;47.47;;;15.00;;
32427;SDS011;18882;50.952;4.366;2023-11-21T09:10:40;42.20;;;15.25;;
32427;SDS011;18882;50.952;4.366;2023-11-21T09:13:07;44.88;;;15.32;;
32427;SDS011;18882;50.952;4.366;2023-11-21T09:15:34;46.50;;;16.13;;
32427;SDS011;18882;50.952;4.366;2023-11-21T09:18:00;39.50;;;13.93;;
32427;SDS011;18882;50.952;4.366;2023-11-21T09:20:26;39.30;;;14.68;;
32427;SDS011;18882;50.952;4.366;2023-11-21T09:22:53;34.45;;;14.40;;
32427;SDS011;18882;50.952;4.366;2023-11-21T09:25:20;44.38;;;15.45;;
32427;SDS011;18882;50.952;4.366;2023-11-21T09:27:46;41.30;;;12.60;;
32427;SDS011;18882;50.952;4.366;2023-11-21T09:30:12;37.72;;;13.55;;
32427;SDS011;18882;50.952;4.366;2023-11-21T09:32:39;39.47;;;14.18;;
32427;SDS011;18882;50.952;4.366;2023-11-21T09:35:05;36.40;;;13.50;;
32427;SDS011;18882;50.952;4.366;2023-11-21T09:37:33;34.92;;;12.93;;
32427;SDS011;18882;50.952;4.366;2023-11-21T09:39:59;30.67;;;12.52;;
32427;SDS011;18882;50.952;4.366;2023-11-21T09:42:38;40.97;;;13.65;;
32427;SDS011;18882;50.952;4.366;2023-11-21T09:45:11;26.92;;;11.88;;
32427;SDS011;18882;50.952;4.366;2023-11-21T09:47:38;35.42;;;12.30;;
32427;SDS011;18882;50.952;4.366;2023-11-21T09:50:19;34.60;;;11.43;;
32427;SDS011;18882;50.952;4.366;2023-11-21T09:55:22;32.58;;;11.85;;
32427;SDS011;18882;50.952;4.366;2023-11-21T09:57:50;31.52;;;11.98;;
32427;SDS011;18882;50.952;4.366;2023-11-21T10:00:18;36.63;;;12.60;;
32427;SDS011;18882;50.952;4.366;2023-11-21T10:02:48;43.83;;;13.85;;
32427;SDS011;18882;50.952;4.366;2023-11-21T10:05:15;42.25;;;13.32;;
32427;SDS011;18882;50.952;4.366;2023-11-21T10:07:42;57.72;;;15.35;;
32427;SDS011;18882;50.952;4.366;2023-11-21T10:10:10;43.80;;;14.98;;
32427;SDS011;18882;50.952;4.366;2023-11-21T10:12:36;45.35;;;16.15;;
32427;SDS011;18882;50.952;4.366;2023-11-21T10:15:03;53.08;;;16.23;;
32427;SDS011;18882;50.952;4.366;2023-11-21T10:17:34;51.55;;;17.02;;
32427;SDS011;18882;50.952;4.366;2023-11-21T10:20:08;51.95;;;15.88;;
32427;SDS011;18882;50.952;4.366;2023-11-21T10:22:41;57.05;;;17.17;;
32427;SDS011;18882;50.952;4.366;2023-11-21T10:25:11;52.55;;;16.38;;
32427;SDS011;18882;50.952;4.366;2023-11-21T10:27:41;51.57;;;18.23;;
32427;SDS011;18882;50.952;4.366;2023-11-21T10:30:08;55.83;;;18.50;;
32427;SDS011;18882;50.952;4.366;2023-11-21T10:32:40;52.22;;;16.58;;
32427;SDS011;18882;50.952;4.366;2023-11-21T10:35:06;54.85;;;17.33;;
32427;SDS011;18882;50.952;4.366;2023-11-21T10:37:35;51.38;;;16.52;;
32427;SDS011;18882;50.952;4.366;2023-11-21T10:40:04;54.70;;;17.52;;
32427;SDS011;18882;50.952;4.366;2023-11-21T10:42:32;50.55;;;18.15;;
32427;SDS011;18882;50.952;4.366;2023-11-21T10:44:58;47.38;;;17.13;;
32427;SDS011;18882;50.952;4.366;2023-11-21T10:47:23;55.38;;;17.48;;
32427;SDS011;18882;50.952;4.366;2023-11-21T10:49:51;42.45;;;16.40;;
32427;SDS011;18882;50.952;4.366;2023-11-21T10:52:20;51.97;;;17.02;;
32427;SDS011;18882;50.952;4.366;2023-11-21T10:54:46;49.72;;;16.75;;
32427;SDS011;18882;50.952;4.366;2023-11-21T10:57:13;45.17;;;16.52;;
32427;SDS011;18882;50.952;4.366;2023-11-21T10:59:42;41.63;;;15.95;;
32427;SDS011;18882;50.952;4.366;2023-11-21T11:04:46;40.85;;;16.13;;
32427;SDS011;18882;50.952;4.366;2023-11-21T11:07:13;42.38;;;15.85;;
32427;SDS011;18882;50.952;4.366;2023-11-21T11:09:43;45.60;;;16.08;;
32427;SDS011;18882;50.952;4.366;2023-11-21T11:12:15;36.22;;;15.40;;
32427;SDS011;18882;50.952;4.366;2023-11-21T11:14:42;38.17;;;15.10;;
32427;SDS011;18882;50.952;4.366;2023-11-21T11:17:09;45.17;;;15.68;;
32427;SDS011;18882;50.952;4.366;2023-11-21T11:19:36;31.73;;;14.23;;
32427;SDS011;18882;50.952;4.366;2023-11-21T11:30:31;32.35;;;14.27;;
32427;SDS011;18882;50.952;4.366;2023-11-21T11:35:57;33.38;;;13.80;;
32427;SDS011;18882;50.952;4.366;2023-11-21T11:38:32;27.23;;;12.95;;
32427;SDS011;18882;50.952;4.366;2023-11-21T11:41:04;29.20;;;13.40;;
32427;SDS011;18882;50.952;4.366;2023-11-21T11:43:31;28.85;;;11.80;;
32427;SDS011;18882;50.952;4.366;2023-11-21T11:46:09;26.33;;;11.02;;
32427;SDS011;18882;50.952;4.366;2023-11-21T11:48:39;20.88;;;10.82;;
32427;SDS011;18882;50.952;4.366;2023-11-21T11:51:06;22.88;;;11.68;;
32427;SDS011;18882;50.952;4.366;2023-11-21T11:53:43;22.17;;;10.60;;
32427;SDS011;18882;50.952;4.366;2023-11-21T11:58:52;17.95;;;8.50;;
32427;SDS011;18882;50.952;4.366;2023-11-21T12:01:19;23.05;;;10.10;;
32427;SDS011;18882;50.952;4.366;2023-11-21T12:04:46;20.10;;;9.27;;
32427;SDS011;18882;50.952;4.366;2023-11-21T12:06:45;18.85;;;9.65;;
32427;SDS011;18882;50.952;4.366;2023-11-21T12:09:18;16.45;;;9.10;;
32427;SDS011;18882;50.952;4.366;2023-11-21T12:11:48;17.80;;;9.77;;
32427;SDS011;18882;50.952;4.366;2023-11-21T12:14:14;18.25;;;9.55;;
32427;SDS011;18882;50.952;4.366;2023-11-21T12:16:40;21.60;;;9.85;;
32427;SDS011;18882;50.952;4.366;2023-11-21T12:19:08;21.17;;;9.98;;
32427;SDS011;18882;50.952;4.366;2023-11-21T12:21:37;15.75;;;8.10;;
32427;SDS011;18882;50.952;4.366;2023-11-21T12:24:02;20.52;;;8.25;;
32427;SDS011;18882;50.952;4.366;2023-11-21T12:26:29;16.50;;;7.20;;
32427;SDS011;18882;50.952;4.366;2023-11-21T12:28:55;14.90;;;7.00;;
32427;SDS011;18882;50.952;4.366;2023-11-21T12:31:21;15.75;;;7.10;;
32427;SDS011;18882;50.952;4.366;2023-11-21T12:33:49;15.02;;;6.65;;
32427;SDS011;18882;50.952;4.366;2023-11-21T12:36:15;14.55;;;7.25;;
32427;SDS011;18882;50.952;4.366;2023-11-21T12:38:41;15.70;;;6.95;;
32427;SDS011;18882;50.952;4.366;2023-11-21T12:41:07;13.18;;;7.07;;
32427;SDS011;18882;50.952;4.366;2023-11-21T12:43:35;16.25;;;8.93;;
32427;SDS011;18882;50.952;4.366;2023-11-21T12:46:10;14.75;;;8.00;;
32427;SDS011;18882;50.952;4.366;2023-11-21T12:48:43;18.85;;;8.35;;
32427;SDS011;18882;50.952;4.366;2023-11-21T12:51:10;17.90;;;8.32;;
32427;SDS011;18882;50.952;4.366;2023-11-21T12:53:37;16.35;;;8.68;;
32427;SDS011;18882;50.952;4.366;2023-11-21T12:56:07;18.02;;;8.05;;
32427;SDS011;18882;50.952;4.366;2023-11-21T12:58:38;22.65;;;8.05;;
32427;SDS011;18882;50.952;4.366;2023-11-21T13:01:08;12.60;;;7.80;;
32427;SDS011;18882;50.952;4.366;2023-11-21T13:03:39;18.80;;;8.73;;
32427;SDS011;18882;50.952;4.366;2023-11-21T13:06:06;16.50;;;8.02;;
32427;SDS011;18882;50.952;4.366;2023-11-21T13:08:35;13.80;;;7.97;;
32427;SDS011;18882;50.952;4.366;2023-11-21T13:11:04;16.58;;;7.70;;
32427;SDS011;18882;50.952;4.366;2023-11-21T13:13:31;11.02;;;6.53;;
32427;SDS011;18882;50.952;4.366;2023-11-21T13:15:59;12.63;;;7.13;;
32427;SDS011;18882;50.952;4.366;2023-11-21T13:18:29;15.02;;;6.72;;
32427;SDS011;18882;50.952;4.366;2023-11-21T13:20:56;10.32;;;7.03;;
32427;SDS011;18882;50.952;4.366;2023-11-21T13:23:35;13.60;;;7.10;;
32427;SDS011;18882;50.952;4.366;2023-11-21T13:26:04;12.63;;;7.03;;
32427;SDS011;18882;50.952;4.366;2023-11-21T13:28:30;14.98;;;6.40;;
32427;SDS011;18882;50.952;4.366;2023-11-21T13:30:59;10.10;;;4.97;;
32427;SDS011;18882;50.952;4.366;2023-11-21T13:33:45;6.95;;;3.97;;
32427;SDS011;18882;50.952;4.366;2023-11-21T13:36:16;5.22;;;3.72;;
32427;SDS011;18882;50.952;4.366;2023-11-21T13:38:47;6.25;;;3.28;;
32427;SDS011;18882;50.952;4.366;2023-11-21T13:41:14;3.15;;;2.80;;
32427;SDS011;18882;50.952;4.366;2023-11-21T13:43:40;4.78;;;3.13;;
32427;SDS011;18882;50.952;4.366;2023-11-21T13:46:09;5.47;;;3.05;;
32427;SDS011;18882;50.952;4.366;2023-11-21T13:48:46;8.63;;;3.20;;
32427;SDS011;18882;50.952;4.366;2023-11-21T13:51:18;6.38;;;2.78;;
32427;SDS011;18882;50.952;4.366;2023-11-21T13:53:48;3.88;;;2.30;;
32427;SDS011;18882;50.952;4.366;2023-11-21T13:56:18;4.85;;;2.38;;
32427;SDS011;18882;50.952;4.366;2023-11-21T13:58:53;4.82;;;2.35;;
32427;SDS011;18882;50.952;4.366;2023-11-21T14:01:19;5.55;;;3.33;;
32427;SDS011;18882;50.952;4.366;2023-11-21T14:03:57;3.58;;;2.65;;
32427;SDS011;18882;50.952;4.366;2023-11-21T14:06:34;4.88;;;3.35;;
32427;SDS011;18882;50.952;4.366;2023-11-21T14:09:13;3.47;;;2.85;;
32427;SDS011;18882;50.952;4.366;2023-11-21T14:11:54;4.78;;;2.83;;
32427;SDS011;18882;50.952;4.366;2023-11-21T14:14:23;5.40;;;3.22;;
32427;SDS011;18882;50.952;4.366;2023-11-21T14:16:50;4.47;;;2.88;;
32427;SDS011;18882;50.952;4.366;2023-11-21T14:19:17;4.15;;;2.83;;
32427;SDS011;18882;50.952;4.366;2023-11-21T14:21:44;5.18;;;3.28;;
32427;SDS011;18882;50.952;4.366;2023-11-21T14:24:11;5.00;;;3.15;;
32427;SDS011;18882;50.952;4.366;2023-11-21T14:26:43;5.93;;;3.13;;
32427;SDS011;18882;50.952;4.366;2023-11-21T14:29:13;5.07;;;2.60;;
32427;SDS011;18882;50.952;4.366;2023-11-21T14:31:42;6.38;;;2.45;;
32427;SDS011;18882;50.952;4.366;2023-11-21T14:34:08;3.97;;;2.95;;
32427;SDS011;18882;50.952;4.366;2023-11-21T14:36:34;5.32;;;3.08;;
32427;SDS011;18882;50.952;4.366;2023-11-21T14:39:02;5.00;;;2.90;;
32427;SDS011;18882;50.952;4.366;2023-11-21T14:41:32;6.60;;;2.75;;
32427;SDS011;18882;50.952;4.366;2023-11-21T14:44:00;6.55;;;3.40;;
32427;SDS011;18882;50.952;4.366;2023-11-21T14:46:28;5.47;;;3.25;;